Time,TemperatureF,DewpointF,PressureIn,WindDirection,WindDirectionDegrees,WindSpeedMPH,WindSpeedGustMPH,Humidity,HourlyPrecipIn,Conditions,Clouds,dailyrainin,SoftwareType,DateUTC
2015-01-26 00:02:00,23.9,17.5,30.22,ENE,57,2.0,2.0,76,0.00,,FEW,0.00,VWS V14.01,2015-01-26 07:02:00,
2015-01-26 00:06:00,23.7,17.3,30.22,ENE,57,1.0,3.0,76,0.00,,FEW,0.00,VWS V14.01,2015-01-26 07:06:00,
2015-01-26 00:11:00,23.4,17.0,30.22,ENE,57,0.0,3.0,76,0.00,,FEW,0.00,VWS V14.01,2015-01-26 07:11:00,
2015-01-26 00:17:00,23.2,17.1,30.23,ENE,57,0.0,3.0,77,0.00,,FEW,0.00,VWS V14.01,2015-01-26 07:17:00,
2015-01-26 00:22:00,23.2,17.4,30.22,ENE,57,0.0,3.0,78,0.00,,FEW,0.00,VWS V14.01,2015-01-26 07:22:00,
2015-01-26 00:26:00,23.1,17.3,30.22,ENE,57,1.0,3.0,78,0.00,,FEW,0.00,VWS V14.01,2015-01-26 07:26:00,
2015-01-26 00:31:00,22.9,16.8,30.22,ENE,57,0.0,0.0,77,0.00,,FEW,0.00,VWS V14.01,2015-01-26 07:31:00,
2015-01-26 00:36:00,22.7,16.9,30.22,ENE,57,1.0,1.0,78,0.00,,FEW,0.00,VWS V14.01,2015-01-26 07:36:00,
2015-01-26 00:41:00,22.8,17.0,30.22,ENE,70,0.0,2.0,78,0.00,,FEW,0.00,VWS V14.01,2015-01-26 07:41:00,
2015-01-26 00:46:00,22.8,17.0,30.22,ENE,70,0.0,2.0,78,0.00,,FEW,0.00,VWS V14.01,2015-01-26 07:46:00,
2015-01-26 00:51:00,22.7,16.6,30.22,NE,53,0.0,2.0,77,0.00,,FEW,0.00,VWS V14.01,2015-01-26 07:51:00,
2015-01-26 00:56:00,22.7,17.2,30.22,ENE,57,0.0,2.0,79,0.00,,FEW,0.00,VWS V14.01,2015-01-26 07:56:00,
2015-01-26 01:01:00,22.7,17.2,30.22,ENE,57,0.0,0.0,79,0.00,,FEW,0.00,VWS V14.01,2015-01-26 08:01:00,
2015-01-26 01:06:00,22.8,17.0,30.22,ENE,57,0.0,0.0,78,0.00,,FEW,0.00,VWS V14.01,2015-01-26 08:06:00,
2015-01-26 01:11:00,22.9,17.1,30.22,ENE,57,0.0,0.0,78,0.00,,FEW,0.00,VWS V14.01,2015-01-26 08:11:00,
2015-01-26 01:16:00,23.1,17.3,30.22,ENE,57,0.0,0.0,78,0.00,,FEW,0.00,VWS V14.01,2015-01-26 08:16:00,
2015-01-26 01:21:00,23.0,16.9,30.22,ENE,57,0.0,2.0,77,0.00,,FEW,0.00,VWS V14.01,2015-01-26 08:21:00,
2015-01-26 01:26:00,22.8,17.0,30.23,ENE,57,0.0,2.0,78,0.00,,FEW,0.00,VWS V14.01,2015-01-26 08:26:00,
2015-01-26 01:31:00,22.6,16.8,30.23,ENE,57,0.0,0.0,78,0.00,,FEW,0.00,VWS V14.01,2015-01-26 08:31:00,
2015-01-26 01:36:00,22.5,17.0,30.23,ENE,57,0.0,0.0,79,0.00,,FEW,0.00,VWS V14.01,2015-01-26 08:36:00,
2015-01-26 01:41:00,22.5,17.0,30.23,ENE,57,0.0,2.0,79,0.00,,FEW,0.00,VWS V14.01,2015-01-26 08:41:00,
2015-01-26 01:46:00,22.4,16.9,30.23,ENE,77,0.0,2.0,79,0.00,,FEW,0.00,VWS V14.01,2015-01-26 08:46:00,
2015-01-26 01:51:00,22.3,16.8,30.24,ENE,77,0.0,2.0,79,0.00,,FEW,0.00,VWS V14.01,2015-01-26 08:51:00,
2015-01-26 01:56:00,22.2,16.7,30.24,ENE,78,0.0,2.0,79,0.00,,FEW,0.00,VWS V14.01,2015-01-26 08:56:00,
2015-01-26 02:01:00,21.9,16.4,30.24,South,191,0.0,0.0,79,0.00,,FEW,0.00,VWS V14.01,2015-01-26 09:01:00,
2015-01-26 02:06:00,21.9,16.7,30.25,South,171,0.0,0.0,80,0.00,,FEW,0.00,VWS V14.01,2015-01-26 09:06:00,
2015-01-26 02:11:00,22.0,16.8,30.24,SSE,151,0.0,0.0,80,0.00,,FEW,0.00,VWS V14.01,2015-01-26 09:11:00,
2015-01-26 02:16:00,21.9,16.4,30.25,ENE,60,0.0,2.0,79,0.00,,FEW,0.00,VWS V14.01,2015-01-26 09:16:00,
2015-01-26 02:21:00,21.6,16.4,30.25,ENE,62,0.0,2.0,80,0.00,,FEW,0.00,VWS V14.01,2015-01-26 09:21:00,
2015-01-26 02:26:00,21.4,16.2,30.25,SE,126,0.0,2.0,80,0.00,,FEW,0.00,VWS V14.01,2015-01-26 09:26:00,
2015-01-26 02:31:00,21.5,16.6,30.25,East,100,0.0,0.0,81,0.00,,FEW,0.00,VWS V14.01,2015-01-26 09:31:00,
2015-01-26 02:36:00,21.5,16.6,30.25,East,100,0.0,1.0,81,0.00,,FEW,0.00,VWS V14.01,2015-01-26 09:36:00,
2015-01-26 02:41:00,21.5,16.6,30.25,ESE,107,0.0,2.0,81,0.00,,FEW,0.00,VWS V14.01,2015-01-26 09:41:00,
2015-01-26 02:46:00,21.9,17.0,30.25,East,99,0.0,2.0,81,0.00,,FEW,0.00,VWS V14.01,2015-01-26 09:46:00,
2015-01-26 02:51:00,22.0,17.1,30.26,East,101,0.0,2.0,81,0.00,,FEW,0.00,VWS V14.01,2015-01-26 09:51:00,
2015-01-26 02:56:00,22.1,17.2,30.26,East,84,1.0,2.0,81,0.00,,FEW,0.00,VWS V14.01,2015-01-26 09:56:00,
2015-01-26 03:01:00,22.2,17.3,30.26,East,86,0.0,0.0,81,0.00,,FEW,0.00,VWS V14.01,2015-01-26 10:01:00,
2015-01-26 03:06:00,22.1,16.9,30.26,East,86,0.0,1.0,80,0.00,,FEW,0.00,VWS V14.01,2015-01-26 10:06:00,
2015-01-26 03:11:00,21.9,16.7,30.26,East,86,0.0,1.0,80,0.00,,FEW,0.00,VWS V14.01,2015-01-26 10:11:00,
2015-01-26 03:16:00,21.6,16.1,30.26,East,86,0.0,1.0,79,0.00,,FEW,0.00,VWS V14.01,2015-01-26 10:16:00,
2015-01-26 03:21:00,21.3,16.1,30.25,East,79,0.0,1.0,80,0.00,,FEW,0.00,VWS V14.01,2015-01-26 10:21:00,
2015-01-26 03:26:00,20.8,15.6,30.26,East,79,0.0,1.0,80,0.00,,FEW,0.00,VWS V14.01,2015-01-26 10:26:00,
2015-01-26 03:31:00,20.3,15.4,30.26,East,79,0.0,0.0,81,0.00,,FEW,0.00,VWS V14.01,2015-01-26 10:31:00,
2015-01-26 03:36:00,20.3,15.7,30.26,East,80,0.0,2.0,82,0.00,,FEW,0.00,VWS V14.01,2015-01-26 10:36:00,
2015-01-26 03:41:00,20.3,15.7,30.26,East,80,0.0,2.0,82,0.00,,FEW,0.00,VWS V14.01,2015-01-26 10:41:00,
2015-01-26 03:46:00,20.5,15.9,30.25,East,80,0.0,2.0,82,0.00,,FEW,0.00,VWS V14.01,2015-01-26 10:46:00,
2015-01-26 03:51:00,20.5,15.6,30.25,NE,56,0.0,2.0,81,0.00,,FEW,0.00,VWS V14.01,2015-01-26 10:51:00,
2015-01-26 03:56:00,20.8,16.2,30.25,NE,49,0.0,2.0,82,0.00,,FEW,0.00,VWS V14.01,2015-01-26 10:56:00,
2015-01-26 04:01:00,21.0,15.8,30.25,NE,49,0.0,0.0,80,0.00,,FEW,0.00,VWS V14.01,2015-01-26 11:01:00,
2015-01-26 04:06:00,21.0,16.1,30.25,NE,49,0.0,0.0,81,0.00,,FEW,0.00,VWS V14.01,2015-01-26 11:06:00,
2015-01-26 04:11:00,21.1,16.2,30.25,NE,49,0.0,0.0,81,0.00,,FEW,0.00,VWS V14.01,2015-01-26 11:11:00,
2015-01-26 04:16:00,21.0,16.1,30.25,NE,49,0.0,2.0,81,0.00,,FEW,0.00,VWS V14.01,2015-01-26 11:16:00,
2015-01-26 04:21:00,21.1,16.2,30.25,NE,55,1.0,2.0,81,0.00,,FEW,0.00,VWS V14.01,2015-01-26 11:21:00,
2015-01-26 04:26:00,21.2,16.0,30.25,NE,55,0.0,2.0,80,0.00,,FEW,0.00,VWS V14.01,2015-01-26 11:26:00,
2015-01-26 04:31:00,20.9,15.7,30.25,NE,55,0.0,0.0,80,0.00,,FEW,0.00,VWS V14.01,2015-01-26 11:31:00,
2015-01-26 04:36:00,20.8,15.9,30.25,NE,55,0.0,2.0,81,0.00,,FEW,0.00,VWS V14.01,2015-01-26 11:36:00,
2015-01-26 04:41:00,20.9,16.0,30.25,NE,55,0.0,2.0,81,0.00,,FEW,0.00,VWS V14.01,2015-01-26 11:41:00,
2015-01-26 04:46:00,21.3,16.4,30.25,NE,55,0.0,2.0,81,0.00,,FEW,0.00,VWS V14.01,2015-01-26 11:46:00,
2015-01-26 04:51:00,21.2,16.0,30.25,NE,55,0.0,2.0,80,0.00,,FEW,0.00,VWS V14.01,2015-01-26 11:51:00,
2015-01-26 04:56:00,21.1,16.2,30.25,NE,55,0.0,2.0,81,0.00,,FEW,0.00,VWS V14.01,2015-01-26 11:56:00,
2015-01-26 05:01:00,21.2,16.3,30.25,NE,55,0.0,0.0,81,0.00,,FEW,0.00,VWS V14.01,2015-01-26 12:01:00,
2015-01-26 05:06:00,21.4,16.2,30.24,NE,55,0.0,1.0,80,0.00,,FEW,0.00,VWS V14.01,2015-01-26 12:06:00,
2015-01-26 05:11:00,21.1,15.9,30.24,NE,55,0.0,0.0,80,0.00,,FEW,0.00,VWS V14.01,2015-01-26 12:11:00,
2015-01-26 05:16:00,20.8,15.6,30.24,NE,55,0.0,0.0,80,0.00,,FEW,0.00,VWS V14.01,2015-01-26 12:16:00,
2015-01-26 05:21:00,20.6,15.4,30.24,NE,55,0.0,0.0,80,0.00,,FEW,0.00,VWS V14.01,2015-01-26 12:21:00,
2015-01-26 05:26:00,20.4,15.5,30.24,NE,55,0.0,0.0,81,0.00,,FEW,0.00,VWS V14.01,2015-01-26 12:26:00,
2015-01-26 05:31:00,19.8,14.6,30.25,NE,55,0.0,0.0,80,0.00,,FEW,0.00,VWS V14.01,2015-01-26 12:31:00,
2015-01-26 05:36:00,19.3,14.4,30.25,NE,55,0.0,0.0,81,0.00,,FEW,0.00,VWS V14.01,2015-01-26 12:36:00,
2015-01-26 05:41:00,19.0,14.7,30.25,NE,55,0.0,0.0,83,0.00,,FEW,0.00,VWS V14.01,2015-01-26 12:41:00,
2015-01-26 05:46:00,18.7,14.4,30.25,NE,55,0.0,0.0,83,0.00,,FEW,0.00,VWS V14.01,2015-01-26 12:46:00,
2015-01-26 05:51:00,18.4,14.1,30.25,NE,55,0.0,0.0,83,0.00,,FEW,0.00,VWS V14.01,2015-01-26 12:51:00,
2015-01-26 05:56:00,18.1,13.8,30.25,NE,55,0.0,0.0,83,0.00,,FEW,0.00,VWS V14.01,2015-01-26 12:56:00,
2015-01-26 06:01:00,17.9,13.9,30.25,ENE,58,0.0,2.0,84,0.00,,FEW,0.00,VWS V14.01,2015-01-26 13:01:00,
2015-01-26 06:06:00,17.7,13.7,30.25,ENE,58,0.0,0.0,84,0.00,,FEW,0.00,VWS V14.01,2015-01-26 13:06:00,
2015-01-26 06:11:00,17.5,13.5,30.26,ENE,58,0.0,0.0,84,0.00,,FEW,0.00,VWS V14.01,2015-01-26 13:11:00,
2015-01-26 06:16:00,17.2,13.5,30.26,ENE,58,0.0,0.0,85,0.00,,FEW,0.00,VWS V14.01,2015-01-26 13:16:00,
2015-01-26 06:21:00,17.2,13.7,30.26,ENE,78,1.0,3.0,86,0.00,,FEW,0.00,VWS V14.01,2015-01-26 13:21:00,
2015-01-26 06:26:00,17.3,13.8,30.26,East,90,0.0,3.0,86,0.00,,FEW,0.00,VWS V14.01,2015-01-26 13:26:00,
2015-01-26 06:31:00,17.7,14.5,30.27,East,88,0.0,3.0,87,0.00,,FEW,0.00,VWS V14.01,2015-01-26 13:31:00,
2015-01-26 06:36:00,17.9,14.4,30.27,East,88,0.0,0.0,86,0.00,,FEW,0.00,VWS V14.01,2015-01-26 13:36:00,
2015-01-26 06:41:00,17.9,14.4,30.27,East,88,0.0,0.0,86,0.00,,FEW,0.00,VWS V14.01,2015-01-26 13:41:00,
2015-01-26 06:46:00,17.8,14.3,30.27,East,88,0.0,0.0,86,0.00,,FEW,0.00,VWS V14.01,2015-01-26 13:46:00,
2015-01-26 06:51:00,17.7,14.2,30.28,ENE,74,0.0,3.0,86,0.00,,FEW,0.00,VWS V14.01,2015-01-26 13:51:00,
2015-01-26 06:56:00,17.9,14.7,30.28,East,90,0.0,3.0,87,0.00,,FEW,0.00,VWS V14.01,2015-01-26 13:56:00,
2015-01-26 07:01:00,18.4,15.2,30.28,ENE,74,0.0,3.0,87,0.00,,FEW,0.00,VWS V14.01,2015-01-26 14:01:00,
2015-01-26 07:06:00,18.9,15.4,30.28,East,80,1.0,2.0,86,0.00,,FEW,0.00,VWS V14.01,2015-01-26 14:06:00,
2015-01-26 07:11:00,19.1,15.3,30.28,East,82,1.0,2.0,85,0.00,,FEW,0.00,VWS V14.01,2015-01-26 14:11:00,
2015-01-26 07:16:00,19.2,15.2,30.28,East,82,0.0,2.0,84,0.00,,FEW,0.00,VWS V14.01,2015-01-26 14:16:00,
2015-01-26 07:21:00,19.3,15.3,30.28,East,86,0.0,2.0,84,0.00,,FEW,0.00,VWS V14.01,2015-01-26 14:21:00,
2015-01-26 07:26:00,19.5,15.5,30.28,East,86,0.0,2.0,84,0.00,,FEW,0.00,VWS V14.01,2015-01-26 14:26:00,
2015-01-26 07:31:00,19.8,15.8,30.28,ENE,78,0.0,3.0,84,0.00,,FEW,0.00,VWS V14.01,2015-01-26 14:31:00,
2015-01-26 07:36:00,20.0,15.9,30.28,East,80,0.0,1.0,84,0.00,,FEW,0.00,VWS V14.01,2015-01-26 14:36:00,
2015-01-26 07:41:00,20.2,15.6,30.29,East,80,0.0,1.0,82,0.00,,FEW,0.00,VWS V14.01,2015-01-26 14:41:00,
2015-01-26 07:46:00,20.4,16.1,30.29,ENE,78,0.0,1.0,83,0.00,,FEW,0.00,VWS V14.01,2015-01-26 14:46:00,
2015-01-26 07:51:00,20.4,15.8,30.29,ENE,72,0.0,1.0,82,0.00,,FEW,0.00,VWS V14.01,2015-01-26 14:51:00,
2015-01-26 07:56:00,20.7,16.4,30.29,East,79,0.0,2.0,83,0.00,,FEW,0.00,VWS V14.01,2015-01-26 14:56:00,
2015-01-26 08:01:00,21.0,16.4,30.29,ENE,78,0.0,2.0,82,0.00,,FEW,0.00,VWS V14.01,2015-01-26 15:01:00,
2015-01-26 08:06:00,21.5,16.9,30.29,ENE,72,0.0,1.0,82,0.00,,FEW,0.00,VWS V14.01,2015-01-26 15:06:00,
2015-01-26 08:11:00,21.9,16.7,30.30,ENE,72,0.0,1.0,80,0.00,,FEW,0.00,VWS V14.01,2015-01-26 15:11:00,
2015-01-26 08:16:00,22.2,17.5,30.30,ENE,73,0.0,1.0,82,0.00,,FEW,0.00,VWS V14.01,2015-01-26 15:16:00,
2015-01-26 08:21:00,22.7,17.8,30.30,ENE,72,0.0,1.0,81,0.00,,FEW,0.00,VWS V14.01,2015-01-26 15:21:00,
2015-01-26 08:26:00,23.4,18.1,30.30,ENE,73,0.0,1.0,80,0.00,,FEW,0.00,VWS V14.01,2015-01-26 15:26:00,
2015-01-26 08:31:00,24.2,18.3,30.30,ENE,65,0.0,1.0,78,0.00,,FEW,0.00,VWS V14.01,2015-01-26 15:31:00,
2015-01-26 08:36:00,24.2,18.0,30.30,WNW,300,0.0,1.0,77,0.00,,FEW,0.00,VWS V14.01,2015-01-26 15:36:00,
2015-01-26 08:41:00,24.4,18.2,30.31,WNW,300,0.0,1.0,77,0.00,,FEW,0.00,VWS V14.01,2015-01-26 15:41:00,
2015-01-26 08:46:00,24.7,18.5,30.30,WNW,300,0.0,1.0,77,0.00,,FEW,0.00,VWS V14.01,2015-01-26 15:46:00,
2015-01-26 08:51:00,25.0,18.8,30.30,WNW,300,0.0,1.0,77,0.00,,FEW,0.00,VWS V14.01,2015-01-26 15:51:00,
2015-01-26 08:56:00,25.3,19.1,30.30,WNW,300,0.0,1.0,77,0.00,,FEW,0.00,VWS V14.01,2015-01-26 15:56:00,
2015-01-26 09:01:00,25.8,19.6,30.30,WNW,300,0.0,1.0,77,0.00,,FEW,0.00,VWS V14.01,2015-01-26 16:01:00,
2015-01-26 09:06:00,26.9,20.0,30.30,WNW,300,0.0,1.0,75,0.00,,FEW,0.00,VWS V14.01,2015-01-26 16:06:00,
2015-01-26 09:11:00,28.1,20.2,30.30,WNW,288,1.0,3.0,72,0.00,,FEW,0.00,VWS V14.01,2015-01-26 16:11:00,
2015-01-26 09:16:00,28.4,19.9,30.30,West,271,0.0,3.0,70,0.00,,FEW,0.00,VWS V14.01,2015-01-26 16:16:00,
2015-01-26 09:21:00,28.2,20.0,30.30,West,273,0.0,4.0,71,0.00,,FEW,0.00,VWS V14.01,2015-01-26 16:21:00,
2015-01-26 09:26:00,27.9,19.7,30.30,West,273,0.0,4.0,71,0.00,,FEW,0.00,VWS V14.01,2015-01-26 16:26:00,
2015-01-26 09:31:00,27.9,19.7,30.30,West,273,0.0,4.0,71,0.00,,FEW,0.00,VWS V14.01,2015-01-26 16:31:00,
2015-01-26 09:36:00,27.9,19.7,30.31,WNW,287,0.0,2.0,71,0.00,,FEW,0.00,VWS V14.01,2015-01-26 16:36:00,
2015-01-26 09:41:00,27.9,19.7,30.31,WNW,287,0.0,2.0,71,0.00,,FEW,0.00,VWS V14.01,2015-01-26 16:41:00,
2015-01-26 09:46:00,28.1,19.9,30.31,WNW,287,0.0,2.0,71,0.00,,FEW,0.00,VWS V14.01,2015-01-26 16:46:00,
2015-01-26 09:51:00,28.4,19.9,30.31,WNW,287,0.0,2.0,70,0.00,,FEW,0.00,VWS V14.01,2015-01-26 16:51:00,
2015-01-26 09:56:00,28.5,20.0,30.31,WNW,289,0.0,3.0,70,0.00,,FEW,0.00,VWS V14.01,2015-01-26 16:56:00,
2015-01-26 10:01:00,28.5,20.0,30.31,WNW,289,2.0,6.0,70,0.00,,SKC,0.00,VWS V14.01,2015-01-26 17:01:00,
2015-01-26 10:06:00,28.8,20.3,30.31,WNW,303,2.0,5.0,70,0.00,,SKC,0.00,VWS V14.01,2015-01-26 17:06:00,
2015-01-26 10:11:00,29.3,20.7,30.31,WNW,300,2.0,5.0,70,0.00,,SKC,0.00,VWS V14.01,2015-01-26 17:11:00,
2015-01-26 10:16:00,29.9,20.6,30.31,NW,306,3.0,5.0,68,0.00,,SKC,0.00,VWS V14.01,2015-01-26 17:16:00,
2015-01-26 10:21:00,30.3,21.0,30.31,NW,309,2.0,5.0,68,0.00,,SKC,0.00,VWS V14.01,2015-01-26 17:21:00,
2015-01-26 10:26:00,30.8,21.1,30.31,NW,308,2.0,5.0,67,0.00,,SKC,0.00,VWS V14.01,2015-01-26 17:26:00,
2015-01-26 10:31:00,31.0,21.0,30.31,WSW,254,2.0,5.0,66,0.00,,SKC,0.00,VWS V14.01,2015-01-26 17:31:00,
2015-01-26 10:36:00,31.6,21.6,30.31,West,271,2.0,5.0,66,0.00,,SKC,0.00,VWS V14.01,2015-01-26 17:36:00,
2015-01-26 10:41:00,31.9,21.5,30.31,West,271,2.0,5.0,65,0.00,,SKC,0.00,VWS V14.01,2015-01-26 17:41:00,
2015-01-26 10:46:00,32.5,22.1,30.30,West,271,2.0,6.0,65,0.00,,SKC,0.00,VWS V14.01,2015-01-26 17:46:00,
2015-01-26 10:51:00,33.0,22.2,30.30,West,271,2.0,6.0,64,0.00,,SKC,0.00,VWS V14.01,2015-01-26 17:51:00,
2015-01-26 10:56:00,33.1,21.9,30.30,West,270,2.0,6.0,63,0.00,,SKC,0.00,VWS V14.01,2015-01-26 17:56:00,
2015-01-26 11:01:00,33.2,21.6,30.30,West,269,2.0,6.0,62,0.00,,SKC,0.00,VWS V14.01,2015-01-26 18:01:00,
2015-01-26 11:06:00,33.4,21.8,30.31,WNW,300,4.0,6.0,62,0.00,,SKC,0.00,VWS V14.01,2015-01-26 18:06:00,
2015-01-26 11:11:00,33.7,22.1,30.30,West,281,3.0,6.0,62,0.00,,SKC,0.00,VWS V14.01,2015-01-26 18:11:00,
2015-01-26 11:16:00,34.4,22.0,30.30,SW,225,2.0,6.0,60,0.00,,SKC,0.00,VWS V14.01,2015-01-26 18:16:00,
2015-01-26 11:21:00,34.9,22.4,30.29,SW,231,4.0,7.0,60,0.00,,SKC,0.00,VWS V14.01,2015-01-26 18:21:00,
2015-01-26 11:26:00,35.3,22.0,30.29,WSW,251,5.0,7.0,58,0.00,,SKC,0.00,VWS V14.01,2015-01-26 18:26:00,
2015-01-26 11:31:00,35.3,22.0,30.29,WSW,238,3.0,7.0,58,0.00,,SKC,0.00,VWS V14.01,2015-01-26 18:31:00,
2015-01-26 11:36:00,35.6,22.3,30.29,West,267,3.0,6.0,58,0.00,,SKC,0.00,VWS V14.01,2015-01-26 18:36:00,
2015-01-26 11:41:00,35.8,22.5,30.29,West,271,3.0,6.0,58,0.00,,SKC,0.00,VWS V14.01,2015-01-26 18:41:00,
2015-01-26 11:46:00,36.2,22.0,30.28,West,271,2.0,6.0,56,0.00,,SKC,0.00,VWS V14.01,2015-01-26 18:46:00,
2015-01-26 11:51:00,36.6,22.0,30.28,West,278,2.0,6.0,55,0.00,,SKC,0.00,VWS V14.01,2015-01-26 18:51:00,
2015-01-26 11:56:00,37.0,21.5,30.28,West,278,2.0,6.0,53,0.00,,SKC,0.00,VWS V14.01,2015-01-26 18:56:00,
2015-01-26 12:01:00,37.5,22.4,30.27,West,278,2.0,6.0,54,0.00,,SKC,0.00,VWS V14.01,2015-01-26 19:01:00,
2015-01-26 12:06:00,38.1,22.9,30.27,SSW,198,3.0,7.0,54,0.00,,SKC,0.00,VWS V14.01,2015-01-26 19:06:00,
2015-01-26 12:11:00,38.4,22.3,30.27,SW,232,3.0,7.0,52,0.00,,SKC,0.00,VWS V14.01,2015-01-26 19:11:00,
2015-01-26 12:16:00,38.7,22.6,30.26,SW,224,2.0,7.0,52,0.00,,SKC,0.00,VWS V14.01,2015-01-26 19:16:00,
2015-01-26 12:21:00,39.1,23.0,30.26,SW,224,2.0,7.0,52,0.00,,SKC,0.00,VWS V14.01,2015-01-26 19:21:00,
2015-01-26 12:26:00,39.1,23.0,30.25,WSW,237,3.0,7.0,52,0.00,,SKC,0.00,VWS V14.01,2015-01-26 19:26:00,
2015-01-26 12:31:00,39.0,22.9,30.25,WSW,250,2.0,8.0,52,0.00,,SKC,0.00,VWS V14.01,2015-01-26 19:31:00,
2015-01-26 12:36:00,39.1,23.0,30.26,WSW,251,3.0,7.0,52,0.00,,SKC,0.00,VWS V14.01,2015-01-26 19:36:00,
2015-01-26 12:41:00,38.9,22.8,30.26,West,270,5.0,7.0,52,0.00,,SKC,0.00,VWS V14.01,2015-01-26 19:41:00,
2015-01-26 12:45:00,39.1,23.0,30.26,West,269,2.0,7.0,52,0.00,,SKC,0.00,VWS V14.01,2015-01-26 19:45:00,
2015-01-26 12:50:00,39.2,22.6,30.25,SSW,202,2.0,7.0,51,0.00,,SKC,0.00,VWS V14.01,2015-01-26 19:50:00,
2015-01-26 12:55:00,39.5,22.9,30.25,SSW,203,5.0,8.0,51,0.00,,SKC,0.00,VWS V14.01,2015-01-26 19:55:00,
2015-01-26 13:00:00,39.3,22.7,30.25,WSW,254,2.0,8.0,51,0.00,,SKC,0.00,VWS V14.01,2015-01-26 20:00:00,
2015-01-26 13:05:00,39.5,22.4,30.25,SW,222,2.0,6.0,50,0.00,,SKC,0.00,VWS V14.01,2015-01-26 20:05:00,
2015-01-26 13:10:00,39.7,22.6,30.25,SSW,213,2.0,6.0,50,0.00,,SKC,0.00,VWS V14.01,2015-01-26 20:10:00,
2015-01-26 13:15:00,40.0,22.4,30.24,SW,215,4.0,6.0,49,0.00,,SKC,0.00,VWS V14.01,2015-01-26 20:15:00,
2015-01-26 13:20:00,40.3,23.6,30.24,SW,218,3.0,6.0,51,0.00,,SKC,0.00,VWS V14.01,2015-01-26 20:20:00,
2015-01-26 13:25:00,40.5,22.9,30.24,SSW,198,3.0,6.0,49,0.00,,SKC,0.00,VWS V14.01,2015-01-26 20:25:00,
2015-01-26 13:30:00,40.5,21.4,30.24,SW,220,2.0,6.0,46,0.00,,SKC,0.00,VWS V14.01,2015-01-26 20:30:00,
2015-01-26 13:35:00,40.9,22.7,30.23,SW,221,4.0,6.0,48,0.00,,SKC,0.00,VWS V14.01,2015-01-26 20:35:00,
2015-01-26 13:40:00,41.3,21.0,30.23,SW,222,2.0,6.0,44,0.00,,SKC,0.00,VWS V14.01,2015-01-26 20:40:00,
2015-01-26 13:45:00,41.5,22.3,30.23,WSW,240,3.0,7.0,46,0.00,,SKC,0.00,VWS V14.01,2015-01-26 20:45:00,
2015-01-26 13:50:00,41.5,22.3,30.23,WSW,249,2.0,7.0,46,0.00,,SKC,0.00,VWS V14.01,2015-01-26 20:50:00,
2015-01-26 13:55:00,41.4,22.2,30.23,SSW,211,2.0,7.0,46,0.00,,SKC,0.00,VWS V14.01,2015-01-26 20:55:00,
2015-01-26 14:00:00,41.2,21.5,30.23,SW,232,3.0,7.0,45,0.00,,SKC,0.00,VWS V14.01,2015-01-26 21:00:00,
2015-01-26 14:05:00,41.3,20.5,30.23,WSW,237,3.0,5.0,43,0.00,,SKC,0.00,VWS V14.01,2015-01-26 21:05:00,
2015-01-26 14:10:00,41.2,21.5,30.23,SSW,205,2.0,7.0,45,0.00,,SKC,0.00,VWS V14.01,2015-01-26 21:10:00,
2015-01-26 14:15:00,41.1,21.9,30.23,West,280,3.0,7.0,46,0.00,,SKC,0.00,VWS V14.01,2015-01-26 21:15:00,
2015-01-26 14:19:00,40.8,21.6,30.23,West,280,2.0,7.0,46,0.00,,SKC,0.00,VWS V14.01,2015-01-26 21:19:00,
2015-01-26 14:24:00,40.5,20.3,30.23,SSW,211,3.0,7.0,44,0.00,,SKC,0.00,VWS V14.01,2015-01-26 21:24:00,
2015-01-26 14:29:00,40.3,21.7,30.23,SW,223,2.0,7.0,47,0.00,,SKC,0.00,VWS V14.01,2015-01-26 21:29:00,
2015-01-26 14:34:00,40.1,21.5,30.23,SW,223,2.0,5.0,47,0.00,,SKC,0.00,VWS V14.01,2015-01-26 21:34:00,